createdAt,value
2019-03-01T00:01:23.103Z,12.80
2019-03-01T00:06:39.528Z,13.30
2019-03-01T00:12:00.304Z,13.53
2019-03-01T00:17:40.929Z,13.13
2019-03-01T00:23:21.370Z,15.50
2019-03-01T00:29:17.826Z,12.53
2019-03-01T00:35:11.822Z,15.10
2019-03-01T00:40:48.826Z,14.80
2019-03-01T00:45:52.181Z,14.60
2019-03-01T00:50:55.751Z,15.30
2019-03-01T00:56:02.236Z,15.60
2019-03-01T01:01:05.592Z,15.13
2019-03-01T01:06:08.785Z,14.50
2019-03-01T01:11:12.111Z,15.53
2019-03-01T01:16:17.639Z,15.57
2019-03-01T01:21:20.970Z,16.43
2019-03-01T01:26:24.457Z,17.00
2019-03-01T01:31:27.766Z,16.50
2019-03-01T01:36:33.159Z,17.70
2019-03-01T01:41:36.370Z,17.23
2019-03-01T01:46:39.679Z,15.80
2019-03-01T01:51:43.091Z,17.63
2019-03-01T01:56:46.673Z,16.00
2019-03-01T02:01:57.279Z,18.53
2019-03-01T02:07:00.700Z,16.80
2019-03-01T02:12:03.897Z,17.60
2019-03-01T02:17:07.388Z,18.33
2019-03-01T02:22:10.834Z,17.30
2019-03-01T02:27:32.953Z,18.30
2019-03-01T02:32:44.000Z,18.80
2019-03-01T02:37:50.382Z,19.20
2019-03-01T02:42:53.915Z,18.17
2019-03-01T02:47:57.279Z,19.80
2019-03-01T02:53:00.669Z,21.10
2019-03-01T02:58:04.038Z,19.50
2019-03-01T03:03:07.227Z,20.63
2019-03-01T03:08:10.731Z,21.80
2019-03-01T03:13:13.536Z,21.40
2019-03-01T03:18:20.964Z,21.30
2019-03-01T03:23:24.455Z,22.87
2019-03-01T03:28:27.790Z,21.40
2019-03-01T03:33:31.105Z,21.90
2019-03-01T03:38:34.426Z,23.00
2019-03-01T03:43:39.301Z,21.17
2019-03-01T03:48:42.675Z,22.77
2019-03-01T03:53:47.871Z,23.87
2019-03-01T03:58:51.122Z,24.30
2019-03-01T04:03:54.339Z,24.20
2019-03-01T04:08:58.804Z,22.97
2019-03-01T04:14:04.971Z,23.53
2019-03-01T04:19:11.451Z,24.93
2019-03-01T04:24:14.841Z,24.60
2019-03-01T04:29:18.219Z,25.40
2019-03-01T04:34:21.098Z,26.73
2019-03-01T04:39:27.560Z,28.57
2019-03-01T04:44:31.115Z,27.40
2019-03-01T04:49:34.492Z,29.60
2019-03-01T04:54:38.073Z,28.80
2019-03-01T04:59:44.470Z,28.40
2019-03-01T05:04:48.038Z,26.13
2019-03-01T05:09:55.590Z,28.23
2019-03-01T05:14:59.088Z,27.23
2019-03-01T05:20:14.251Z,27.20
2019-03-01T05:25:17.486Z,23.90
2019-03-01T05:30:20.808Z,23.43
2019-03-01T05:35:24.289Z,23.97
2019-03-01T05:40:33.681Z,22.90
2019-03-01T05:45:39.957Z,22.90
2019-03-01T05:50:43.434Z,21.20
2019-03-01T05:55:51.397Z,20.90
2019-03-01T06:00:57.809Z,21.00
2019-03-01T06:06:01.354Z,19.80
2019-03-01T06:12:00.448Z,19.33
2019-03-01T06:17:44.435Z,19.10
2019-03-01T06:23:18.467Z,15.60
2019-03-01T06:28:45.306Z,15.53
2019-03-01T06:34:45.370Z,14.83
2019-03-01T06:40:34.252Z,15.57
2019-03-01T06:46:37.259Z,14.87
2019-03-01T06:51:40.617Z,14.53
2019-03-01T06:56:44.020Z,14.87
2019-03-01T07:01:47.962Z,14.03
2019-03-01T07:06:57.083Z,13.23
2019-03-01T07:12:00.299Z,14.27
2019-03-01T07:17:10.844Z,13.03
2019-03-01T07:22:14.357Z,13.70
2019-03-01T07:27:17.804Z,13.00
2019-03-01T07:32:25.700Z,12.57
2019-03-01T07:37:28.847Z,10.70
2019-03-01T07:42:32.722Z,9.60
2019-03-01T07:47:36.188Z,9.50
2019-03-01T07:52:40.060Z,10.00
2019-03-01T07:57:43.239Z,9.40
2019-03-01T08:02:48.418Z,9.00
2019-03-01T08:07:56.014Z,9.27
2019-03-01T08:12:56.882Z,9.40
2019-03-01T08:18:08.218Z,7.27
2019-03-01T08:23:11.592Z,7.17
2019-03-01T08:28:24.246Z,6.63
2019-03-01T08:33:27.586Z,6.27
2019-03-01T08:38:30.615Z,6.30
2019-03-01T08:43:39.853Z,6.80
2019-03-01T08:48:43.344Z,6.60
2019-03-01T08:53:48.366Z,7.30
2019-03-01T08:59:14.115Z,6.30
2019-03-01T09:04:21.439Z,5.13
2019-03-01T09:09:25.237Z,4.40
2019-03-01T09:14:31.414Z,3.90
2019-03-01T09:19:37.831Z,3.27
2019-03-01T09:24:41.227Z,2.93
2019-03-01T09:29:45.304Z,2.40
2019-03-01T09:34:51.636Z,2.23
2019-03-01T09:39:55.011Z,2.50
2019-03-01T09:44:58.555Z,2.30
2019-03-01T09:50:02.042Z,2.67
2019-03-01T09:55:05.695Z,2.60
2019-03-01T10:00:10.628Z,2.90
2019-03-01T10:05:13.953Z,2.80
2019-03-01T10:10:21.800Z,2.87
2019-03-01T10:15:25.558Z,2.07
2019-03-01T10:20:29.382Z,3.00
2019-03-01T10:25:33.405Z,2.50
2019-03-01T10:30:37.231Z,2.87
2019-03-01T10:35:41.261Z,2.30
2019-03-01T10:40:44.904Z,2.20
2019-03-01T10:45:51.670Z,3.30
2019-03-01T10:50:55.309Z,4.10
2019-03-01T10:55:59.623Z,4.47
2019-03-01T11:01:09.002Z,4.97
2019-03-01T11:06:12.492Z,5.87
2019-03-01T11:11:16.414Z,5.70
2019-03-01T11:16:23.209Z,5.50
2019-03-01T11:21:26.827Z,5.47
2019-03-01T11:26:33.518Z,6.10
2019-03-01T11:31:43.075Z,6.00
2019-03-01T11:36:46.591Z,4.83
2019-03-01T11:41:50.039Z,3.57
2019-03-01T11:46:54.290Z,3.77
2019-03-01T11:52:00.276Z,3.07
2019-03-01T11:57:03.564Z,2.80
2019-03-01T12:02:11.234Z,2.80
2019-03-01T12:07:22.429Z,2.87
2019-03-01T12:12:25.835Z,2.90
2019-03-01T12:17:29.089Z,2.30
2019-03-01T12:22:32.392Z,2.90
2019-03-01T12:27:36.084Z,2.30
2019-03-01T12:32:44.091Z,2.57
2019-03-01T12:37:53.548Z,2.43
2019-03-01T12:42:58.890Z,2.23
2019-03-01T12:48:05.263Z,2.60
2019-03-01T12:53:14.488Z,2.83
2019-03-01T12:58:19.664Z,3.07
2019-03-01T13:03:26.015Z,2.50
2019-03-01T13:08:29.518Z,2.53
2019-03-01T13:13:39.378Z,3.00
2019-03-01T13:18:42.704Z,2.37
2019-03-01T13:23:45.920Z,2.70
2019-03-01T13:28:49.327Z,2.43
2019-03-01T13:33:52.749Z,2.30
2019-03-01T13:38:56.199Z,3.10
2019-03-01T13:44:00.381Z,2.33
2019-03-01T13:49:04.603Z,2.83
2019-03-01T13:54:08.950Z,2.37
2019-03-01T13:59:12.660Z,3.50
2019-03-01T14:04:17.297Z,3.43
2019-03-01T14:09:23.403Z,3.03
2019-03-01T14:14:27.222Z,3.33
2019-03-01T14:19:30.989Z,2.77
2019-03-01T14:24:37.406Z,2.97
2019-03-01T14:29:53.605Z,2.90
2019-03-01T14:34:54.165Z,2.53
2019-03-01T14:40:00.335Z,2.27
2019-03-01T14:45:06.636Z,3.30
2019-03-01T14:50:13.738Z,2.23
2019-03-01T14:55:19.690Z,2.73
2019-03-01T15:00:49.547Z,2.80
2019-03-01T15:05:53.426Z,2.23
2019-03-01T15:11:11.073Z,2.33
2019-03-01T15:16:23.527Z,3.47
2019-03-01T15:21:26.858Z,3.03
2019-03-01T15:26:30.186Z,2.90
2019-03-01T15:31:36.343Z,3.13
2019-03-01T15:36:39.902Z,2.73
2019-03-01T15:41:43.537Z,2.33
2019-03-01T15:46:53.181Z,2.73
2019-03-01T15:51:56.545Z,2.47
2019-03-01T15:56:59.807Z,3.93
2019-03-01T16:02:03.318Z,3.37
2019-03-01T16:07:06.729Z,4.37
2019-03-01T16:12:13.248Z,3.40
2019-03-01T16:17:16.688Z,3.50
2019-03-01T16:22:19.969Z,3.00
2019-03-01T16:27:23.307Z,2.77
2019-03-01T16:32:26.157Z,3.23
2019-03-01T16:37:31.614Z,3.27
2019-03-01T16:42:38.490Z,3.37
2019-03-01T16:47:42.090Z,3.60
2019-03-01T16:52:45.188Z,3.10
2019-03-01T16:57:52.067Z,2.93
2019-03-01T17:02:53.639Z,3.53
2019-03-01T17:07:59.845Z,3.10
2019-03-01T17:13:01.971Z,3.37
2019-03-01T17:18:11.046Z,3.70
2019-03-01T17:23:11.395Z,4.20
2019-03-01T17:28:16.406Z,3.90
2019-03-01T17:33:19.550Z,4.00
2019-03-01T17:38:22.941Z,3.47
2019-03-01T17:43:29.664Z,4.07
2019-03-01T17:48:31.149Z,3.47
2019-03-01T17:53:34.680Z,3.97
2019-03-01T17:58:38.242Z,4.97
2019-03-01T18:03:44.379Z,3.43
2019-03-01T18:08:50.858Z,3.43
2019-03-01T18:13:56.823Z,3.53
2019-03-01T18:19:01.475Z,4.50
2019-03-01T18:24:04.397Z,3.33
2019-03-01T18:29:10.891Z,3.30
2019-03-01T18:34:13.703Z,3.40
2019-03-01T18:39:17.276Z,3.20
2019-03-01T18:44:25.853Z,2.83
2019-03-01T18:49:32.089Z,3.60
2019-03-01T18:54:35.868Z,5.63
2019-03-01T18:59:40.762Z,3.97
2019-03-01T19:04:44.274Z,3.57
2019-03-01T19:09:48.720Z,3.33
2019-03-01T19:14:53.045Z,3.03
2019-03-01T19:20:02.065Z,3.07
2019-03-01T19:25:06.078Z,3.50
2019-03-01T19:30:13.714Z,2.93
2019-03-01T19:35:29.710Z,3.00
2019-03-01T19:40:34.887Z,3.33
2019-03-01T19:45:40.810Z,3.00
2019-03-01T19:50:43.624Z,2.87
2019-03-01T19:55:48.835Z,3.30
2019-03-01T20:00:52.375Z,2.97
2019-03-01T20:05:55.743Z,2.70
2019-03-01T20:10:59.258Z,3.53
2019-03-01T20:16:06.254Z,3.17
2019-03-01T20:21:16.126Z,2.70
2019-03-01T20:26:26.715Z,2.73
2019-03-01T20:31:30.316Z,2.60
2019-03-01T20:36:36.144Z,3.30
2019-03-01T20:41:46.174Z,3.27
2019-03-01T20:46:44.997Z,2.97
2019-03-01T20:51:48.681Z,3.63
2019-03-01T20:56:52.726Z,4.20
2019-03-01T21:01:57.961Z,3.50
2019-03-01T21:07:03.074Z,3.80
2019-03-01T21:12:09.345Z,3.87
2019-03-01T21:17:12.860Z,3.97
2019-03-01T21:22:16.434Z,3.43
2019-03-01T21:27:22.679Z,3.77
2019-03-01T21:32:31.344Z,3.77
2019-03-01T21:37:38.308Z,4.17
2019-03-01T21:42:42.801Z,3.77
2019-03-01T21:47:51.925Z,3.00
2019-03-01T21:52:55.362Z,2.40
2019-03-01T21:57:58.781Z,3.27
2019-03-01T22:03:01.651Z,3.80
2019-03-01T22:08:04.996Z,4.40
2019-03-01T22:13:08.401Z,4.03
2019-03-01T22:18:14.506Z,2.50
2019-03-01T22:23:18.373Z,3.03
2019-03-01T22:28:21.741Z,2.97
2019-03-01T22:33:26.943Z,2.43
2019-03-01T22:38:37.690Z,3.30
2019-03-01T22:43:43.077Z,2.27
2019-03-01T22:48:49.009Z,3.17
2019-03-01T22:53:51.620Z,4.37
2019-03-01T22:58:55.068Z,2.20
2019-03-01T23:04:01.665Z,2.50
2019-03-01T23:09:10.680Z,2.50
2019-03-01T23:14:14.004Z,2.87
2019-03-01T23:19:20.527Z,2.60
2019-03-01T23:24:23.746Z,2.50
2019-03-01T23:29:28.701Z,2.80
2019-03-01T23:34:32.199Z,3.03
2019-03-01T23:39:37.113Z,2.37
2019-03-01T23:44:41.527Z,2.10
2019-03-01T23:49:47.829Z,2.60
2019-03-01T23:54:51.396Z,2.10
2019-03-01T23:59:54.254Z,2.40
